sensor_id;sensor_type;location;lat;lon;timestamp;pressure;altitude;pressure_sealevel;temperature;humidity
6567;BME280;3317;43.994;22.878;2023-04-16T00:00:29;100534.72;;;15.36;49.72
6567;BME280;3317;43.994;22.878;2023-04-16T00:02:56;100533.84;;;15.35;49.73
6567;BME280;3317;43.994;22.878;2023-04-16T00:05:23;100536.19;;;15.39;49.50
6567;BME280;3317;43.994;22.878;2023-04-16T00:07:51;100531.69;;;15.46;49.79
6567;BME280;3317;43.994;22.878;2023-04-16T00:10:20;100534.31;;;15.54;49.50
6567;BME280;3317;43.994;22.878;2023-04-16T00:12:46;100532.31;;;15.63;49.08
6567;BME280;3317;43.994;22.878;2023-04-16T00:15:13;100529.66;;;15.70;49.05
6567;BME280;3317;43.994;22.878;2023-04-16T00:17:41;100527.16;;;15.75;48.89
6567;BME280;3317;43.994;22.878;2023-04-16T00:20:08;100535.66;;;15.80;48.48
6567;BME280;3317;43.994;22.878;2023-04-16T00:22:35;100540.44;;;15.78;49.09
6567;BME280;3317;43.994;22.878;2023-04-16T00:25:03;100533.69;;;15.74;49.23
6567;BME280;3317;43.994;22.878;2023-04-16T00:27:31;100534.53;;;15.74;49.45
6567;BME280;3317;43.994;22.878;2023-04-16T00:29:58;100531.56;;;15.54;49.83
6567;BME280;3317;43.994;22.878;2023-04-16T00:32:25;100527.25;;;15.45;49.97
6567;BME280;3317;43.994;22.878;2023-04-16T00:34:52;100532.56;;;15.31;50.64
6567;BME280;3317;43.994;22.878;2023-04-16T00:37:19;100541.03;;;15.22;50.84
6567;BME280;3317;43.994;22.878;2023-04-16T00:39:46;100521.84;;;15.00;51.02
6567;BME280;3317;43.994;22.878;2023-04-16T00:42:13;100538.69;;;15.03;51.29
6567;BME280;3317;43.994;22.878;2023-04-16T00:44:41;100527.00;;;14.80;51.91
6567;BME280;3317;43.994;22.878;2023-04-16T00:47:08;100538.41;;;14.83;51.88
6567;BME280;3317;43.994;22.878;2023-04-16T00:49:35;100537.13;;;14.71;52.34
6567;BME280;3317;43.994;22.878;2023-04-16T00:52:02;100496.44;;;14.31;52.38
6567;BME280;3317;43.994;22.878;2023-04-16T00:54:30;100532.38;;;14.49;52.79
6567;BME280;3317;43.994;22.878;2023-04-16T00:56:57;100533.50;;;14.40;52.92
6567;BME280;3317;43.994;22.878;2023-04-16T00:59:25;100542.50;;;14.26;53.25
6567;BME280;3317;43.994;22.878;2023-04-16T01:01:53;100537.75;;;14.19;53.05
6567;BME280;3317;43.994;22.878;2023-04-16T01:04:20;100530.63;;;14.18;53.27
6567;BME280;3317;43.994;22.878;2023-04-16T01:06:47;100532.69;;;14.16;52.80
6567;BME280;3317;43.994;22.878;2023-04-16T01:09:15;100522.97;;;14.14;53.47
6567;BME280;3317;43.994;22.878;2023-04-16T01:11:42;100520.00;;;14.23;53.26
6567;BME280;3317;43.994;22.878;2023-04-16T01:14:09;100525.28;;;14.25;53.37
6567;BME280;3317;43.994;22.878;2023-04-16T01:16:36;100519.00;;;14.25;53.59
6567;BME280;3317;43.994;22.878;2023-04-16T01:19:04;100512.31;;;14.27;53.44
6567;BME280;3317;43.994;22.878;2023-04-16T01:21:32;100517.88;;;14.34;53.63
6567;BME280;3317;43.994;22.878;2023-04-16T01:24:01;100517.69;;;14.35;53.92
6567;BME280;3317;43.994;22.878;2023-04-16T01:26:29;100515.56;;;14.46;53.34
6567;BME280;3317;43.994;22.878;2023-04-16T01:28:56;100513.41;;;14.56;53.51
6567;BME280;3317;43.994;22.878;2023-04-16T01:31:22;100506.34;;;14.62;53.27
6567;BME280;3317;43.994;22.878;2023-04-16T01:33:49;100510.41;;;14.66;53.44
6567;BME280;3317;43.994;22.878;2023-04-16T01:36:16;100512.72;;;14.77;53.14
6567;BME280;3317;43.994;22.878;2023-04-16T01:38:45;100513.47;;;14.86;52.95
6567;BME280;3317;43.994;22.878;2023-04-16T01:41:12;100519.19;;;14.91;52.93
6567;BME280;3317;43.994;22.878;2023-04-16T01:43:38;100519.03;;;14.93;52.91
6567;BME280;3317;43.994;22.878;2023-04-16T01:46:12;100516.19;;;14.86;53.66
6567;BME280;3317;43.994;22.878;2023-04-16T01:48:39;100528.31;;;14.84;53.59
6567;BME280;3317;43.994;22.878;2023-04-16T01:51:06;100521.56;;;14.80;53.61
6567;BME280;3317;43.994;22.878;2023-04-16T01:53:34;100527.75;;;14.73;54.24
6567;BME280;3317;43.994;22.878;2023-04-16T01:56:03;100526.47;;;14.61;54.50
6567;BME280;3317;43.994;22.878;2023-04-16T01:58:31;100517.75;;;14.50;55.18
6567;BME280;3317;43.994;22.878;2023-04-16T02:00:58;100516.88;;;14.50;55.30
6567;BME280;3317;43.994;22.878;2023-04-16T02:03:25;100514.16;;;14.50;55.13
6567;BME280;3317;43.994;22.878;2023-04-16T02:05:52;100511.34;;;14.58;54.91
6567;BME280;3317;43.994;22.878;2023-04-16T02:08:19;100514.34;;;14.63;55.09
6567;BME280;3317;43.994;22.878;2023-04-16T02:10:46;100509.75;;;14.64;55.17
6567;BME280;3317;43.994;22.878;2023-04-16T02:13:15;100502.50;;;14.71;54.53
6567;BME280;3317;43.994;22.878;2023-04-16T02:15:44;100500.56;;;14.80;54.25
6567;BME280;3317;43.994;22.878;2023-04-16T02:18:12;100513.47;;;14.86;53.56
6567;BME280;3317;43.994;22.878;2023-04-16T02:20:40;100512.91;;;14.91;54.12
6567;BME280;3317;43.994;22.878;2023-04-16T02:23:07;100506.59;;;14.90;54.43
6567;BME280;3317;43.994;22.878;2023-04-16T02:25:38;100508.50;;;14.90;54.58
6567;BME280;3317;43.994;22.878;2023-04-16T02:28:06;100498.97;;;14.86;55.09
6567;BME280;3317;43.994;22.878;2023-04-16T02:30:35;100500.38;;;14.82;55.33
6567;BME280;3317;43.994;22.878;2023-04-16T02:33:02;100497.00;;;14.80;55.46
6567;BME280;3317;43.994;22.878;2023-04-16T02:35:30;100494.28;;;14.80;55.34
6567;BME280;3317;43.994;22.878;2023-04-16T02:37:57;100495.59;;;14.84;55.41
6567;BME280;3317;43.994;22.878;2023-04-16T02:40:24;100505.84;;;14.82;55.30
6567;BME280;3317;43.994;22.878;2023-04-16T02:42:51;100495.53;;;14.69;55.05
6567;BME280;3317;43.994;22.878;2023-04-16T02:45:18;100499.53;;;14.81;54.83
6567;BME280;3317;43.994;22.878;2023-04-16T02:47:47;100506.41;;;14.77;54.75
6567;BME280;3317;43.994;22.878;2023-04-16T02:50:15;100502.16;;;14.74;55.06
6567;BME280;3317;43.994;22.878;2023-04-16T02:52:42;100507.63;;;14.74;55.36
6567;BME280;3317;43.994;22.878;2023-04-16T02:55:10;100496.53;;;14.76;55.68
6567;BME280;3317;43.994;22.878;2023-04-16T02:57:37;100493.56;;;14.62;56.53
6567;BME280;3317;43.994;22.878;2023-04-16T03:00:05;100487.25;;;14.62;56.22
6567;BME280;3317;43.994;22.878;2023-04-16T03:02:32;100469.97;;;14.55;55.95
6567;BME280;3317;43.994;22.878;2023-04-16T03:05:00;100488.75;;;14.49;56.77
6567;BME280;3317;43.994;22.878;2023-04-16T03:07:27;100490.16;;;14.45;56.41
6567;BME280;3317;43.994;22.878;2023-04-16T03:09:54;100490.53;;;14.42;56.99
6567;BME280;3317;43.994;22.878;2023-04-16T03:12:21;100488.38;;;14.38;57.21
6567;BME280;3317;43.994;22.878;2023-04-16T03:14:49;100490.22;;;14.37;57.18
6567;BME280;3317;43.994;22.878;2023-04-16T03:17:16;100493.66;;;14.39;57.10
6567;BME280;3317;43.994;22.878;2023-04-16T03:19:43;100488.47;;;14.44;56.50
6567;BME280;3317;43.994;22.878;2023-04-16T03:22:12;100492.25;;;14.43;56.70
6567;BME280;3317;43.994;22.878;2023-04-16T03:24:39;100500.41;;;14.43;56.71
6567;BME280;3317;43.994;22.878;2023-04-16T03:27:06;100504.00;;;14.44;56.18
6567;BME280;3317;43.994;22.878;2023-04-16T03:29:35;100492.25;;;14.43;56.04
6567;BME280;3317;43.994;22.878;2023-04-16T03:32:02;100493.19;;;14.50;55.20
6567;BME280;3317;43.994;22.878;2023-04-16T03:34:29;100504.00;;;14.59;54.97
6567;BME280;3317;43.994;22.878;2023-04-16T03:36:56;100498.56;;;14.59;55.07
6567;BME280;3317;43.994;22.878;2023-04-16T03:39:24;100508.72;;;14.65;54.30
6567;BME280;3317;43.994;22.878;2023-04-16T03:41:51;100509.19;;;14.69;53.78
6567;BME280;3317;43.994;22.878;2023-04-16T03:44:18;100496.78;;;14.66;53.97
6567;BME280;3317;43.994;22.878;2023-04-16T03:46:45;100510.34;;;14.74;54.79
6567;BME280;3317;43.994;22.878;2023-04-16T03:49:12;100512.59;;;14.71;56.21
6567;BME280;3317;43.994;22.878;2023-04-16T03:51:39;100515.16;;;14.72;56.74
6567;BME280;3317;43.994;22.878;2023-04-16T03:54:05;100515.81;;;14.74;56.74
6567;BME280;3317;43.994;22.878;2023-04-16T03:56:34;100515.81;;;14.74;56.63
6567;BME280;3317;43.994;22.878;2023-04-16T03:59:01;100466.94;;;14.49;55.38
6567;BME280;3317;43.994;22.878;2023-04-16T04:01:28;100516.09;;;14.80;54.87
6567;BME280;3317;43.994;22.878;2023-04-16T04:03:54;100521.19;;;14.83;54.03
6567;BME280;3317;43.994;22.878;2023-04-16T04:06:21;100524.56;;;14.85;54.36
6567;BME280;3317;43.994;22.878;2023-04-16T04:08:48;100525.41;;;14.85;55.95
6567;BME280;3317;43.994;22.878;2023-04-16T04:11:15;100529.19;;;14.84;56.53
6567;BME280;3317;43.994;22.878;2023-04-16T04:13:43;100536.34;;;14.85;56.59
6567;BME280;3317;43.994;22.878;2023-04-16T04:16:10;100534.66;;;14.84;56.84
6567;BME280;3317;43.994;22.878;2023-04-16T04:18:37;100537.53;;;14.83;57.16
6567;BME280;3317;43.994;22.878;2023-04-16T04:21:05;100543.00;;;14.83;56.42
6567;BME280;3317;43.994;22.878;2023-04-16T04:23:32;100469.38;;;14.44;56.29
6567;BME280;3317;43.994;22.878;2023-04-16T04:25:59;100539.25;;;14.84;56.55
6567;BME280;3317;43.994;22.878;2023-04-16T04:28:29;100517.50;;;14.75;54.86
6567;BME280;3317;43.994;22.878;2023-04-16T04:30:58;100536.13;;;14.87;54.00
6567;BME280;3317;43.994;22.878;2023-04-16T04:33:25;100533.22;;;14.88;54.00
6567;BME280;3317;43.994;22.878;2023-04-16T04:35:52;100542.25;;;14.89;54.48
6567;BME280;3317;43.994;22.878;2023-04-16T04:38:20;100551.47;;;14.88;55.14
6567;BME280;3317;43.994;22.878;2023-04-16T04:40:50;100532.66;;;14.78;55.38
6567;BME280;3317;43.994;22.878;2023-04-16T04:43:17;100551.47;;;14.88;55.41
6567;BME280;3317;43.994;22.878;2023-04-16T04:45:44;100550.41;;;14.89;55.06
6567;BME280;3317;43.994;22.878;2023-04-16T04:48:12;100554.88;;;14.90;55.45
6567;BME280;3317;43.994;22.878;2023-04-16T04:50:40;100558.59;;;14.89;55.75
6567;BME280;3317;43.994;22.878;2023-04-16T04:53:07;100556.91;;;14.88;55.93
6567;BME280;3317;43.994;22.878;2023-04-16T04:55:35;100568.88;;;14.87;55.87
6567;BME280;3317;43.994;22.878;2023-04-16T04:58:03;100569.06;;;14.85;56.27
6567;BME280;3317;43.994;22.878;2023-04-16T05:00:30;100562.75;;;14.85;55.76
6567;BME280;3317;43.994;22.878;2023-04-16T05:02:57;100565.47;;;14.85;56.20
6567;BME280;3317;43.994;22.878;2023-04-16T05:05:25;100567.38;;;14.84;56.58
6567;BME280;3317;43.994;22.878;2023-04-16T05:07:53;100563.78;;;14.84;56.72
6567;BME280;3317;43.994;22.878;2023-04-16T05:10:20;100559.19;;;14.84;56.25
6567;BME280;3317;43.994;22.878;2023-04-16T05:12:47;100560.41;;;14.82;56.57
6567;BME280;3317;43.994;22.878;2023-04-16T05:15:14;100572.63;;;14.86;55.68
6567;BME280;3317;43.994;22.878;2023-04-16T05:17:41;100569.63;;;14.81;56.56
6567;BME280;3317;43.994;22.878;2023-04-16T05:20:08;100582.88;;;14.84;56.30
6567;BME280;3317;43.994;22.878;2023-04-16T05:22:37;100577.59;;;14.82;56.28
6567;BME280;3317;43.994;22.878;2023-04-16T05:25:04;100582.06;;;14.83;57.49
6567;BME280;3317;43.994;22.878;2023-04-16T05:27:31;100569.16;;;14.77;57.45
6567;BME280;3317;43.994;22.878;2023-04-16T05:29:58;100580.34;;;14.82;57.80
6567;BME280;3317;43.994;22.878;2023-04-16T05:32:25;100574.69;;;14.84;57.56
6567;BME280;3317;43.994;22.878;2023-04-16T05:34:52;100583.53;;;14.86;56.95
6567;BME280;3317;43.994;22.878;2023-04-16T05:37:19;100586.94;;;14.88;57.11
6567;BME280;3317;43.994;22.878;2023-04-16T05:39:47;100585.06;;;14.88;57.84
6567;BME280;3317;43.994;22.878;2023-04-16T05:42:14;100590.13;;;14.91;57.76
6567;BME280;3317;43.994;22.878;2023-04-16T05:44:41;100589.09;;;14.92;56.45
6567;BME280;3317;43.994;22.878;2023-04-16T05:47:08;100579.31;;;14.98;56.67
6567;BME280;3317;43.994;22.878;2023-04-16T05:49:35;100585.09;;;15.03;56.96
6567;BME280;3317;43.994;22.878;2023-04-16T05:52:02;100591.00;;;15.07;56.71
6567;BME280;3317;43.994;22.878;2023-04-16T05:54:29;100589.78;;;15.10;57.06
6567;BME280;3317;43.994;22.878;2023-04-16T05:56:58;100582.06;;;15.13;57.60
6567;BME280;3317;43.994;22.878;2023-04-16T05:59:26;100589.69;;;15.18;58.22
6567;BME280;3317;43.994;22.878;2023-04-16T06:01:53;100591.38;;;15.19;58.82
6567;BME280;3317;43.994;22.878;2023-04-16T06:04:21;100589.31;;;15.21;58.84
6567;BME280;3317;43.994;22.878;2023-04-16T06:06:47;100571.97;;;15.14;58.56
6567;BME280;3317;43.994;22.878;2023-04-16T06:09:14;100584.81;;;15.28;57.74
6567;BME280;3317;43.994;22.878;2023-04-16T06:11:43;100584.81;;;15.28;57.54
6567;BME280;3317;43.994;22.878;2023-04-16T06:14:11;100582.63;;;15.39;57.89
6567;BME280;3317;43.994;22.878;2023-04-16T06:16:38;100579.72;;;15.40;57.53
6567;BME280;3317;43.994;22.878;2023-04-16T06:19:05;100576.41;;;15.45;57.67
6567;BME280;3317;43.994;22.878;2023-04-16T06:21:32;100571.69;;;15.39;58.11
6567;BME280;3317;43.994;22.878;2023-04-16T06:24:00;100563.50;;;15.39;58.38
6567;BME280;3317;43.994;22.878;2023-04-16T06:26:27;100582.34;;;15.48;58.80
6567;BME280;3317;43.994;22.878;2023-04-16T06:28:54;100576.66;;;15.50;58.75
6567;BME280;3317;43.994;22.878;2023-04-16T06:31:23;100577.53;;;15.51;59.04
6567;BME280;3317;43.994;22.878;2023-04-16T06:33:50;100573.75;;;15.52;58.25
6567;BME280;3317;43.994;22.878;2023-04-16T06:36:17;100569.13;;;15.52;59.04
6567;BME280;3317;43.994;22.878;2023-04-16T06:38:44;100579.69;;;15.55;58.71
6567;BME280;3317;43.994;22.878;2023-04-16T06:41:11;100571.75;;;15.60;57.00
6567;BME280;3317;43.994;22.878;2023-04-16T06:43:39;100575.16;;;15.62;56.72
6567;BME280;3317;43.994;22.878;2023-04-16T06:46:06;100575.44;;;15.68;56.32
6567;BME280;3317;43.994;22.878;2023-04-16T06:48:35;100575.03;;;15.71;56.27
6567;BME280;3317;43.994;22.878;2023-04-16T06:51:03;100575.88;;;15.71;57.14
6567;BME280;3317;43.994;22.878;2023-04-16T06:53:30;100581.63;;;15.76;56.95
6567;BME280;3317;43.994;22.878;2023-04-16T06:55:57;100570.97;;;15.67;57.41
6567;BME280;3317;43.994;22.878;2023-04-16T06:58:24;100584.16;;;15.78;58.06
6567;BME280;3317;43.994;22.878;2023-04-16T07:00:51;100577.06;;;15.84;57.12
6567;BME280;3317;43.994;22.878;2023-04-16T07:03:18;100579.63;;;15.85;56.45
6567;BME280;3317;43.994;22.878;2023-04-16T07:05:47;100576.72;;;15.87;58.15
6567;BME280;3317;43.994;22.878;2023-04-16T07:08:13;100584.34;;;15.91;59.23
6567;BME280;3317;43.994;22.878;2023-04-16T07:10:40;100583.97;;;15.95;58.60
6567;BME280;3317;43.994;22.878;2023-04-16T07:13:07;100590.25;;;15.95;58.68
6567;BME280;3317;43.994;22.878;2023-04-16T07:15:34;100581.88;;;15.97;59.40
6567;BME280;3317;43.994;22.878;2023-04-16T07:18:01;100579.22;;;16.03;58.28
6567;BME280;3317;43.994;22.878;2023-04-16T07:20:28;100577.13;;;16.05;58.90
6567;BME280;3317;43.994;22.878;2023-04-16T07:22:57;100578.25;;;16.11;57.54
6567;BME280;3317;43.994;22.878;2023-04-16T07:25:24;100576.44;;;16.18;57.17
6567;BME280;3317;43.994;22.878;2023-04-16T07:27:52;100576.28;;;16.27;57.14
6567;BME280;3317;43.994;22.878;2023-04-16T07:30:19;100572.13;;;16.31;56.74
6567;BME280;3317;43.994;22.878;2023-04-16T07:32:46;100574.72;;;16.39;57.30
6567;BME280;3317;43.994;22.878;2023-04-16T07:35:13;100570.81;;;16.49;57.23
6567;BME280;3317;43.994;22.878;2023-04-16T07:37:40;100568.97;;;16.56;56.95
6567;BME280;3317;43.994;22.878;2023-04-16T07:40:09;100571.97;;;16.61;58.39
6567;BME280;3317;43.994;22.878;2023-04-16T07:42:36;100562.72;;;16.62;58.67
6567;BME280;3317;43.994;22.878;2023-04-16T07:45:03;100574.16;;;16.72;58.43
6567;BME280;3317;43.994;22.878;2023-04-16T07:47:30;100581.78;;;16.77;57.91
6567;BME280;3317;43.994;22.878;2023-04-16T07:49:57;100575.50;;;16.83;58.82
6567;BME280;3317;43.994;22.878;2023-04-16T07:52:24;100588.59;;;16.88;58.21
6567;BME280;3317;43.994;22.878;2023-04-16T07:54:52;100591.31;;;16.88;58.13
6567;BME280;3317;43.994;22.878;2023-04-16T07:57:20;100579.78;;;16.93;57.83
6567;BME280;3317;43.994;22.878;2023-04-16T07:59:47;100586.34;;;16.98;57.71
6567;BME280;3317;43.994;22.878;2023-04-16T08:02:15;100587.84;;;17.01;57.83
6567;BME280;3317;43.994;22.878;2023-04-16T08:04:43;100599.25;;;17.05;57.99
6567;BME280;3317;43.994;22.878;2023-04-16T08:07:10;100595.91;;;17.09;57.44
6567;BME280;3317;43.994;22.878;2023-04-16T08:09:46;100593.00;;;17.11;57.54
6567;BME280;3317;43.994;22.878;2023-04-16T08:12:13;100575.84;;;17.02;57.30
6567;BME280;3317;43.994;22.878;2023-04-16T08:14:42;100592.19;;;17.17;57.66
6567;BME280;3317;43.994;22.878;2023-04-16T08:17:09;100588.19;;;17.20;58.13
6567;BME280;3317;43.994;22.878;2023-04-16T08:19:36;100585.25;;;17.21;57.25
6567;BME280;3317;43.994;22.878;2023-04-16T08:22:03;100590.13;;;17.26;57.35
6567;BME280;3317;43.994;22.878;2023-04-16T08:24:30;100588.88;;;17.28;57.34
6567;BME280;3317;43.994;22.878;2023-04-16T08:26:57;100589.09;;;17.34;57.16
6567;BME280;3317;43.994;22.878;2023-04-16T08:29:24;100596.53;;;17.40;56.69
6567;BME280;3317;43.994;22.878;2023-04-16T08:31:53;100603.69;;;17.41;57.14
6567;BME280;3317;43.994;22.878;2023-04-16T08:34:20;100600.53;;;17.44;57.82
6567;BME280;3317;43.994;22.878;2023-04-16T08:36:47;100597.38;;;17.47;57.96
6567;BME280;3317;43.994;22.878;2023-04-16T08:39:14;100591.09;;;17.53;56.92
6567;BME280;3317;43.994;22.878;2023-04-16T08:41:42;100591.97;;;17.60;55.50
6567;BME280;3317;43.994;22.878;2023-04-16T08:44:13;100584.59;;;17.61;56.65
6567;BME280;3317;43.994;22.878;2023-04-16T08:46:45;100561.19;;;17.58;56.54
6567;BME280;3317;43.994;22.878;2023-04-16T08:49:15;100576.22;;;17.69;56.46
6567;BME280;3317;43.994;22.878;2023-04-16T08:51:48;100578.97;;;17.76;55.73
6567;BME280;3317;43.994;22.878;2023-04-16T08:54:23;100581.28;;;17.72;55.51
6567;BME280;3317;43.994;22.878;2023-04-16T08:56:55;100561.66;;;17.69;54.69
6567;BME280;3317;43.994;22.878;2023-04-16T08:59:24;100551.53;;;17.63;56.62
6567;BME280;3317;43.994;22.878;2023-04-16T09:01:52;100550.00;;;17.53;57.46
6567;BME280;3317;43.994;22.878;2023-04-16T09:04:24;100548.28;;;17.45;59.13
6567;BME280;3317;43.994;22.878;2023-04-16T09:06:52;100552.25;;;17.36;59.96
6567;BME280;3317;43.994;22.878;2023-04-16T09:09:21;100513.75;;;17.02;60.50
6567;BME280;3317;43.994;22.878;2023-04-16T09:11:50;100559.31;;;17.17;61.38
6567;BME280;3317;43.994;22.878;2023-04-16T09:14:17;100559.28;;;17.10;62.07
6567;BME280;3317;43.994;22.878;2023-04-16T09:16:45;100550.38;;;17.01;62.87
6567;BME280;3317;43.994;22.878;2023-04-16T09:19:13;100541.66;;;16.91;63.83
6567;BME280;3317;43.994;22.878;2023-04-16T09:21:42;100549.75;;;16.99;62.97
6567;BME280;3317;43.994;22.878;2023-04-16T09:24:11;100549.09;;;16.97;63.96
6567;BME280;3317;43.994;22.878;2023-04-16T09:26:39;100547.59;;;16.95;63.88
6567;BME280;3317;43.994;22.878;2023-04-16T09:29:07;100547.00;;;16.99;64.58
6567;BME280;3317;43.994;22.878;2023-04-16T09:31:34;100554.94;;;16.94;64.02
6567;BME280;3317;43.994;22.878;2023-04-16T09:34:02;100548.00;;;16.92;64.17
6567;BME280;3317;43.994;22.878;2023-04-16T09:36:30;100551.97;;;16.89;64.90
6567;BME280;3317;43.994;22.878;2023-04-16T09:38:59;100558.63;;;16.80;65.69
6567;BME280;3317;43.994;22.878;2023-04-16T09:41:28;100552.56;;;16.84;64.89
6567;BME280;3317;43.994;22.878;2023-04-16T09:43:56;100562.28;;;16.87;64.37
6567;BME280;3317;43.994;22.878;2023-04-16T09:46:24;100565.47;;;16.91;64.38
6567;BME280;3317;43.994;22.878;2023-04-16T09:48:55;100565.25;;;16.92;64.32
6567;BME280;3317;43.994;22.878;2023-04-16T09:51:22;100568.38;;;16.89;65.07
6567;BME280;3317;43.994;22.878;2023-04-16T09:53:51;100566.75;;;16.95;64.59
6567;BME280;3317;43.994;22.878;2023-04-16T09:56:22;100541.00;;;16.89;64.46
6567;BME280;3317;43.994;22.878;2023-04-16T09:58:49;100554.19;;;17.00;64.70
6567;BME280;3317;43.994;22.878;2023-04-16T10:01:17;100535.41;;;16.97;64.00
6567;BME280;3317;43.994;22.878;2023-04-16T10:03:48;100561.00;;;17.18;63.37
6567;BME280;3317;43.994;22.878;2023-04-16T10:06:17;100559.16;;;17.25;62.69
6567;BME280;3317;43.994;22.878;2023-04-16T10:08:45;100553.31;;;17.35;62.89
6567;BME280;3317;43.994;22.878;2023-04-16T10:11:13;100559.88;;;17.41;63.53
6567;BME280;3317;43.994;22.878;2023-04-16T10:13:41;100540.88;;;17.39;63.48
6567;BME280;3317;43.994;22.878;2023-04-16T10:16:08;100560.38;;;17.58;63.17
6567;BME280;3317;43.994;22.878;2023-04-16T10:18:36;100540.97;;;17.59;63.38
6567;BME280;3317;43.994;22.878;2023-04-16T10:21:04;100556.19;;;17.76;63.06
6567;BME280;3317;43.994;22.878;2023-04-16T10:23:31;100549.47;;;17.78;63.57
6567;BME280;3317;43.994;22.878;2023-04-16T10:26:00;100541.44;;;17.77;63.79
6567;BME280;3317;43.994;22.878;2023-04-16T10:28:27;100541.88;;;17.87;63.52
6567;BME280;3317;43.994;22.878;2023-04-16T10:30:57;100554.56;;;18.01;63.29
6567;BME280;3317;43.994;22.878;2023-04-16T10:33:26;100552.94;;;18.07;62.98
6567;BME280;3317;43.994;22.878;2023-04-16T10:36:06;100549.38;;;18.20;62.07
6567;BME280;3317;43.994;22.878;2023-04-16T10:38:37;100553.81;;;18.41;61.86
6567;BME280;3317;43.994;22.878;2023-04-16T10:41:05;100558.03;;;18.51;60.21
6567;BME280;3317;43.994;22.878;2023-04-16T10:43:38;100554.63;;;18.69;59.74
6567;BME280;3317;43.994;22.878;2023-04-16T10:46:29;100553.34;;;18.92;58.84
6567;BME280;3317;43.994;22.878;2023-04-16T10:49:00;100558.19;;;19.10;57.87
6567;BME280;3317;43.994;22.878;2023-04-16T10:51:28;100540.41;;;19.26;58.03
6567;BME280;3317;43.994;22.878;2023-04-16T10:53:56;100551.50;;;19.51;57.57
6567;BME280;3317;43.994;22.878;2023-04-16T10:56:26;100553.31;;;19.71;56.44
6567;BME280;3317;43.994;22.878;2023-04-16T10:58:54;100553.88;;;19.87;56.15
6567;BME280;3317;43.994;22.878;2023-04-16T11:01:33;100543.63;;;20.07;54.90
6567;BME280;3317;43.994;22.878;2023-04-16T11:04:24;100541.41;;;20.23;54.12
6567;BME280;3317;43.994;22.878;2023-04-16T11:07:00;100533.94;;;20.30;54.10
6567;BME280;3317;43.994;22.878;2023-04-16T11:09:57;100544.16;;;20.23;51.74
6567;BME280;3317;43.994;22.878;2023-04-16T11:12:26;100528.25;;;20.25;52.57
6567;BME280;3317;43.994;22.878;2023-04-16T11:15:00;100533.03;;;20.36;51.24
6567;BME280;3317;43.994;22.878;2023-04-16T11:17:31;100524.78;;;20.36;50.66
6567;BME280;3317;43.994;22.878;2023-04-16T11:19:59;100517.53;;;20.42;50.71
6567;BME280;3317;43.994;22.878;2023-04-16T11:22:26;100477.28;;;19.90;49.39
6567;BME280;3317;43.994;22.878;2023-04-16T11:24:54;100517.25;;;20.25;50.36
6567;BME280;3317;43.994;22.878;2023-04-16T11:27:21;100526.75;;;20.29;50.22
6567;BME280;3317;43.994;22.878;2023-04-16T11:29:56;100521.06;;;20.24;50.14
6567;BME280;3317;43.994;22.878;2023-04-16T11:32:23;100525.50;;;20.25;49.94
6567;BME280;3317;43.994;22.878;2023-04-16T11:34:52;100515.47;;;20.37;50.49
6567;BME280;3317;43.994;22.878;2023-04-16T11:37:20;100517.31;;;20.44;48.62
6567;BME280;3317;43.994;22.878;2023-04-16T11:39:51;100502.59;;;20.31;48.49
6567;BME280;3317;43.994;22.878;2023-04-16T11:42:19;100512.25;;;20.40;49.26
6567;BME280;3317;43.994;22.878;2023-04-16T11:44:51;100507.69;;;20.53;49.49
6567;BME280;3317;43.994;22.878;2023-04-16T11:47:18;100513.59;;;20.57;49.36
6567;BME280;3317;43.994;22.878;2023-04-16T11:49:45;100510.38;;;20.60;49.67
6567;BME280;3317;43.994;22.878;2023-04-16T11:52:23;100513.53;;;20.63;48.36
6567;BME280;3317;43.994;22.878;2023-04-16T11:54:51;100506.28;;;20.69;48.79
6567;BME280;3317;43.994;22.878;2023-04-16T11:57:23;100497.56;;;20.72;48.99
6567;BME280;3317;43.994;22.878;2023-04-16T11:59:51;100501.84;;;20.68;48.75
6567;BME280;3317;43.994;22.878;2023-04-16T12:02:33;100490.28;;;20.59;48.44
6567;BME280;3317;43.994;22.878;2023-04-16T12:05:01;100486.97;;;20.50;49.18
6567;BME280;3317;43.994;22.878;2023-04-16T12:07:29;100488.28;;;20.48;49.62
6567;BME280;3317;43.994;22.878;2023-04-16T12:10:04;100481.91;;;20.47;49.80
6567;BME280;3317;43.994;22.878;2023-04-16T12:12:32;100481.97;;;20.40;49.56
6567;BME280;3317;43.994;22.878;2023-04-16T12:15:00;100476.16;;;20.30;49.49
6567;BME280;3317;43.994;22.878;2023-04-16T12:17:28;100467.28;;;20.28;49.95
6567;BME280;3317;43.994;22.878;2023-04-16T12:19:56;100469.16;;;20.34;50.30
6567;BME280;3317;43.994;22.878;2023-04-16T12:22:29;100466.00;;;20.31;50.39
6567;BME280;3317;43.994;22.878;2023-04-16T12:25:00;100473.44;;;19.98;50.26
6567;BME280;3317;43.994;22.878;2023-04-16T12:27:45;100466.22;;;20.04;51.10
6567;BME280;3317;43.994;22.878;2023-04-16T12:30:13;100462.34;;;20.11;51.05
6567;BME280;3317;43.994;22.878;2023-04-16T12:32:41;100461.94;;;20.08;51.23
6567;BME280;3317;43.994;22.878;2023-04-16T12:35:09;100446.97;;;20.04;51.73
6567;BME280;3317;43.994;22.878;2023-04-16T12:37:38;100445.09;;;19.97;51.98
6567;BME280;3317;43.994;22.878;2023-04-16T12:40:06;100445.84;;;20.11;52.16
6567;BME280;3317;43.994;22.878;2023-04-16T12:42:33;100442.25;;;20.11;52.16
6567;BME280;3317;43.994;22.878;2023-04-16T12:45:02;100445.72;;;20.25;51.87
6567;BME280;3317;43.994;22.878;2023-04-16T12:47:29;100442.69;;;20.33;51.59
6567;BME280;3317;43.994;22.878;2023-04-16T12:49:58;100442.16;;;20.43;51.13
6567;BME280;3317;43.994;22.878;2023-04-16T12:52:25;100430.63;;;20.53;51.46
6567;BME280;3317;43.994;22.878;2023-04-16T12:54:53;100423.97;;;20.61;51.39
6567;BME280;3317;43.994;22.878;2023-04-16T12:57:20;100423.69;;;20.69;51.30
6567;BME280;3317;43.994;22.878;2023-04-16T12:59:53;100418.81;;;20.90;51.10
6567;BME280;3317;43.994;22.878;2023-04-16T13:02:20;100418.44;;;20.86;51.04
6567;BME280;3317;43.994;22.878;2023-04-16T13:04:47;100408.78;;;20.95;50.94